Time;durP1;ratioP1;P1;durP2;ratioP2;P2;SDS_P1;SDS_P2;PMS_P1;PMS_P2;Temp;Humidity;BMP_temperature;BMP_pressure;BME280_temperature;BME280_humidity;BME280_pressure;Samples;Min_cycle;Max_cycle;Signal;HPM_P1;HPM_P2
2022/12/29 00:02:07;;;;;;;1.70;0.80;;;14.20;46.60;;;;;;4964607;28;20415;-76
2022/12/29 00:04:33;;;;;;;1.30;0.90;;;14.30;46.50;;;;;;4997085;22;20489;-76
2022/12/29 00:06:58;;;;;;;1.30;1.00;;;14.30;46.40;;;;;;4989311;28;20731;-75
2022/12/29 00:09:25;;;;;;;2.33;1.20;;;14.30;46.40;;;;;;4990463;28;20394;-75
2022/12/29 00:11:51;;;;;;;1.42;0.90;;;14.20;46.70;;;;;;4990568;28;20422;-75
2022/12/29 00:17:00;;;;;;;1.90;1.20;;;14.30;46.30;;;;;;4994651;28;20776;-76
2022/12/29 00:36:09;;;;;;;2.53;1.00;;;14.30;44.90;;;;;;4994168;28;20390;-76
2022/12/29 00:44:10;;;;;;;1.00;0.60;;;14.40;43.60;;;;;;4992569;28;20434;-75
2022/12/29 00:46:39;;;;;;;1.95;0.65;;;14.50;42.90;;;;;;4993800;28;20750;-75
2022/12/29 00:51:51;;;;;;;1.00;0.90;;;14.50;42.30;;;;;;4993805;28;20900;-75
2022/12/29 00:54:17;;;;;;;1.40;0.70;;;14.50;42.00;;;;;;4992770;28;20398;-75
2022/12/29 00:56:43;;;;;;;2.28;0.80;;;14.50;42.10;;;;;;4993158;28;20386;-76
2022/12/29 00:59:10;;;;;;;0.97;0.60;;;14.40;42.40;;;;;;4989201;28;20472;-75
2022/12/29 01:01:37;;;;;;;2.60;0.90;;;14.40;42.30;;;;;;4993521;28;20449;-75
2022/12/29 01:04:03;;;;;;;2.45;0.90;;;14.40;42.00;;;;;;4992411;28;20391;-75
2022/12/29 01:06:29;;;;;;;1.70;0.80;;;14.30;42.70;;;;;;4993418;28;20422;-75
2022/12/29 01:11:39;;;;;;;2.20;0.80;;;14.20;43.00;;;;;;4986202;28;20484;-75
2022/12/29 01:14:05;;;;;;;2.63;0.80;;;14.20;43.10;;;;;;4991086;28;20395;-76
2022/12/29 01:16:31;;;;;;;2.22;0.90;;;14.20;43.10;;;;;;4993286;28;20445;-75
2022/12/29 01:18:56;;;;;;;2.00;0.90;;;14.20;43.00;;;;;;4991964;28;20746;-75
2022/12/29 01:21:22;;;;;;;1.50;0.70;;;14.10;43.40;;;;;;4993034;28;20394;-75
2022/12/29 01:23:47;;;;;;;2.53;0.77;;;14.20;43.40;;;;;;4990951;28;20715;-75
2022/12/29 01:26:15;;;;;;;1.95;0.80;;;14.20;43.30;;;;;;4992556;28;20394;-75
2022/12/29 01:28:41;;;;;;;1.65;0.80;;;14.00;44.30;;;;;;4993021;28;20406;-75
2022/12/29 01:31:11;;;;;;;1.80;1.08;;;13.90;45.10;;;;;;4992847;28;20984;-75
2022/12/29 01:33:37;;;;;;;3.80;0.80;;;13.80;46.60;;;;;;4990619;28;20803;-75
2022/12/29 01:36:13;;;;;;;2.35;0.80;;;13.60;47.00;;;;;;4992600;28;20394;-75
2022/12/29 01:38:39;;;;;;;1.77;1.00;;;13.60;47.90;;;;;;4992401;28;20406;-75
2022/12/29 01:41:06;;;;;;;1.38;0.80;;;13.50;48.10;;;;;;4991323;28;20477;-76
2022/12/29 01:43:50;;;;;;;2.05;1.00;;;13.50;48.00;;;;;;4992000;28;20859;-75
2022/12/29 01:46:30;;;;;;;1.30;0.80;;;13.50;46.90;;;;;;4992569;28;20473;-75
2022/12/29 01:49:13;;;;;;;1.50;0.80;;;13.60;47.30;;;;;;4991509;28;20484;-76
2022/12/29 01:51:45;;;;;;;2.90;1.00;;;13.40;48.20;;;;;;4992526;28;20386;-75
2022/12/29 01:54:30;;;;;;;1.30;1.00;;;13.40;48.10;;;;;;4990311;28;20395;-75
2022/12/29 01:56:59;;;;;;;1.38;1.00;;;13.40;48.30;;;;;;4990742;28;20479;-75
2022/12/29 01:59:29;;;;;;;3.05;1.10;;;13.40;48.20;;;;;;4991907;28;20452;-75
2022/12/29 02:01:54;;;;;;;1.98;0.80;;;13.40;48.50;;;;;;4992635;28;20394;-75
2022/12/29 02:04:23;;;;;;;3.03;0.90;;;13.40;48.30;;;;;;4991133;28;20963;-75
2022/12/29 02:06:55;;;;;;;1.75;1.00;;;13.60;47.90;;;;;;4992493;28;20908;-75
2022/12/29 02:09:21;;;;;;;1.85;1.20;;;13.60;47.60;;;;;;4992233;28;20865;-75
2022/12/29 02:11:47;;;;;;;1.20;0.90;;;13.60;47.60;;;;;;4992225;28;20429;-76
2022/12/29 02:14:14;;;;;;;2.87;1.10;;;13.60;47.90;;;;;;4991406;28;20876;-75
2022/12/29 02:16:57;;;;;;;3.05;1.10;;;13.60;48.20;;;;;;4992274;28;20480;-75
2022/12/29 02:20:00;;;;;;;1.67;1.10;;;13.50;48.40;;;;;;4992020;28;20402;-75
2022/12/29 02:23:03;;;;;;;1.90;1.02;;;13.40;49.10;;;;;;4991371;28;20398;-75
2022/12/29 02:25:31;;;;;;;2.40;1.10;;;13.40;49.90;;;;;;4991639;28;20398;-76
2022/12/29 02:28:22;;;;;;;1.65;1.00;;;13.40;49.80;;;;;;4991836;28;20386;-75
2022/12/29 02:31:25;;;;;;;1.60;0.93;;;13.40;50.10;;;;;;4990400;28;20394;-76
2022/12/29 02:34:12;;;;;;;2.00;0.90;;;13.40;50.20;;;;;;4990695;28;20474;-76
2022/12/29 02:37:03;;;;;;;1.35;0.90;;;13.40;50.90;;;;;;4991068;28;20403;-75
2022/12/29 02:39:40;;;;;;;2.33;0.88;;;13.30;51.40;;;;;;4991761;28;20407;-75
2022/12/29 02:42:22;;;;;;;1.35;1.10;;;13.40;50.80;;;;;;4991612;28;20417;-75
2022/12/29 02:45:11;;;;;;;1.00;0.90;;;13.30;51.50;;;;;;4990859;28;20382;-75
2022/12/29 02:47:47;;;;;;;2.40;1.20;;;13.30;51.80;;;;;;4983259;28;20906;-74
2022/12/29 02:50:27;;;;;;;2.20;1.10;;;13.40;52.10;;;;;;4991428;28;20449;-76
2022/12/29 02:52:57;;;;;;;2.00;1.10;;;13.30;52.60;;;;;;4989388;28;20437;-74
2022/12/29 02:55:22;;;;;;;2.08;1.27;;;13.30;52.70;;;;;;4991111;28;20586;-75
2022/12/29 02:57:48;;;;;;;1.77;1.20;;;13.30;53.80;;;;;;4990174;28;20410;-75
2022/12/29 03:00:17;;;;;;;3.67;1.00;;;13.20;53.80;;;;;;4988852;28;20398;-76
2022/12/29 03:02:57;;;;;;;2.08;1.50;;;13.30;53.50;;;;;;4990423;28;20433;-75
2022/12/29 03:05:23;;;;;;;2.00;1.20;;;13.30;54.00;;;;;;4990478;28;20481;-75
2022/12/29 03:08:20;;;;;;;2.73;1.40;;;13.30;54.10;;;;;;4991410;28;20477;-76
2022/12/29 03:10:51;;;;;;;1.45;1.20;;;13.20;54.60;;;;;;4956153;28;20415;-75
2022/12/29 03:16:26;;;;;;;2.00;1.00;;;13.30;54.90;;;;;;4974793;28;20409;-75
2022/12/29 03:19:10;;;;;;;1.60;1.25;;;13.20;54.60;;;;;;4991300;28;20441;-75
2022/12/29 03:24:27;;;;;;;1.40;1.20;;;13.10;54.60;;;;;;4990669;28;20410;-75
2022/12/29 03:26:56;;;;;;;1.75;1.27;;;13.10;55.50;;;;;;4991032;28;20414;-75
2022/12/29 03:29:22;;;;;;;2.45;1.50;;;13.10;55.40;;;;;;4991334;28;20398;-75
2022/12/29 03:31:51;;;;;;;1.67;1.40;;;13.10;55.90;;;;;;4990998;28;20834;-75
2022/12/29 03:34:20;;;;;;;2.65;1.45;;;13.10;56.10;;;;;;4989846;28;20441;-75
2022/12/29 03:37:00;;;;;;;2.83;1.50;;;13.10;56.30;;;;;;4990907;28;20449;-75
2022/12/29 03:39:26;;;;;;;1.70;1.60;;;13.10;56.70;;;;;;4991035;28;20398;-74
2022/12/29 03:42:02;;;;;;;2.50;1.67;;;13.00;57.40;;;;;;4989533;28;20398;-74
2022/12/29 03:44:33;;;;;;;2.38;1.65;;;13.00;57.20;;;;;;4990092;28;20387;-75
2022/12/29 03:46:58;;;;;;;2.60;1.52;;;13.00;57.90;;;;;;4991423;28;20402;-75
2022/12/29 03:49:24;;;;;;;4.83;1.90;;;12.90;58.00;;;;;;4994902;28;20390;-75
2022/12/29 03:51:49;;;;;;;2.25;1.60;;;12.90;58.30;;;;;;4994858;28;20398;-74
2022/12/29 03:54:15;;;;;;;2.40;1.80;;;13.00;58.20;;;;;;4994104;28;20436;-75
2022/12/29 03:56:40;;;;;;;1.70;1.53;;;12.90;58.30;;;;;;4993572;28;20800;-75
2022/12/29 03:59:06;;;;;;;2.20;1.60;;;12.90;58.60;;;;;;4993233;28;20402;-75
2022/12/29 04:01:31;;;;;;;1.73;1.38;;;13.00;58.60;;;;;;4994315;28;20413;-76
2022/12/29 04:03:57;;;;;;;1.70;1.30;;;13.00;58.40;;;;;;4992670;28;20753;-75
2022/12/29 04:06:23;;;;;;;3.27;1.50;;;13.10;58.00;;;;;;4994590;28;20390;-76
2022/12/29 04:08:49;;;;;;;2.58;1.55;;;13.10;57.90;;;;;;5001338;28;20407;-76
2022/12/29 04:11:14;;;;;;;4.10;1.70;;;13.10;57.90;;;;;;5012918;28;20400;-74
2022/12/29 04:13:40;;;;;;;1.70;1.40;;;13.00;58.40;;;;;;5002140;28;20905;-75
2022/12/29 04:16:06;;;;;;;1.70;1.60;;;13.00;58.60;;;;;;4993617;28;20777;-75
2022/12/29 04:18:32;;;;;;;3.20;1.70;;;13.10;58.40;;;;;;4990567;28;20418;-74
2022/12/29 04:21:01;;;;;;;2.97;1.30;;;13.00;58.70;;;;;;4974920;28;20388;-76
2022/12/29 04:23:32;;;;;;;3.60;1.70;;;13.10;58.70;;;;;;4989083;28;20945;-76
2022/12/29 04:25:57;;;;;;;3.70;1.90;;;13.10;58.40;;;;;;4973529;28;20392;-76
2022/12/29 04:28:23;;;;;;;3.10;2.13;;;13.00;58.80;;;;;;4982627;28;20409;-75
2022/12/29 04:30:48;;;;;;;3.97;1.73;;;13.10;58.70;;;;;;4994132;28;20386;-76
2022/12/29 04:33:14;;;;;;;3.92;1.85;;;13.00;59.00;;;;;;4992063;28;20398;-76
2022/12/29 04:35:42;;;;;;;3.25;1.70;;;13.00;59.50;;;;;;4994121;28;20398;-75
2022/12/29 04:38:08;;;;;;;4.13;1.80;;;12.90;60.40;;;;;;4993895;28;20410;-76
2022/12/29 04:40:34;;;;;;;2.53;1.80;;;12.90;60.20;;;;;;4993857;28;20406;-76
2022/12/29 04:42:59;;;;;;;3.07;1.50;;;12.90;60.20;;;;;;4993116;28;20387;-76
2022/12/29 04:45:25;;;;;;;2.67;1.30;;;12.80;60.80;;;;;;4993866;28;20515;-76
2022/12/29 04:47:50;;;;;;;2.70;1.58;;;12.90;61.20;;;;;;4993917;28;20932;-75
2022/12/29 04:50:16;;;;;;;2.03;1.37;;;13.00;59.40;;;;;;4993862;28;20398;-75
2022/12/29 04:52:41;;;;;;;2.63;1.83;;;13.00;59.40;;;;;;4991495;28;20801;-75
2022/12/29 04:55:07;;;;;;;1.95;1.20;;;13.10;59.40;;;;;;4993867;28;20382;-76
2022/12/29 04:57:33;;;;;;;2.63;1.20;;;13.20;58.50;;;;;;4993101;28;20449;-75
2022/12/29 04:59:58;;;;;;;1.83;1.20;;;13.20;58.80;;;;;;4989016;28;20431;-77
2022/12/29 05:02:27;;;;;;;3.50;1.40;;;13.40;58.00;;;;;;4992580;28;20378;-76
2022/12/29 05:04:52;;;;;;;1.50;1.40;;;13.40;57.50;;;;;;4993180;28;20895;-77
2022/12/29 05:07:21;;;;;;;2.30;1.00;;;13.40;58.00;;;;;;4993759;28;20465;-76
2022/12/29 05:09:47;;;;;;;1.57;1.03;;;13.50;57.30;;;;;;4991200;28;20406;-75
2022/12/29 05:12:13;;;;;;;1.90;1.00;;;13.50;57.20;;;;;;4993271;28;20413;-75
2022/12/29 05:14:38;;;;;;;1.10;1.00;;;13.60;56.00;;;;;;4992492;28;20391;-75
2022/12/29 05:17:04;;;;;;;3.50;1.10;;;13.70;56.20;;;;;;4993339;28;20749;-75
2022/12/29 05:19:29;;;;;;;1.80;1.25;;;13.70;56.40;;;;;;4993357;28;20924;-75
2022/12/29 05:21:55;;;;;;;1.40;0.80;;;13.70;55.90;;;;;;4991934;28;20398;-76
2022/12/29 05:24:20;;;;;;;1.33;1.00;;;13.80;55.10;;;;;;4992117;28;20477;-76
2022/12/29 05:26:49;;;;;;;1.85;0.90;;;13.90;54.30;;;;;;4993411;28;20391;-75
2022/12/29 05:29:15;;;;;;;1.30;0.80;;;14.00;53.80;;;;;;4993122;28;20445;-76
2022/12/29 05:31:40;;;;;;;1.60;0.80;;;14.00;53.70;;;;;;4993197;28;20423;-76
2022/12/29 05:34:06;;;;;;;1.57;1.07;;;13.90;53.20;;;;;;4992076;28;20923;-76
2022/12/29 05:36:31;;;;;;;1.60;0.97;;;14.10;52.90;;;;;;4990900;28;20572;-75
2022/12/29 05:38:57;;;;;;;1.40;0.88;;;14.10;52.10;;;;;;4992713;28;20418;-76
2022/12/29 05:41:22;;;;;;;1.90;0.80;;;14.30;51.70;;;;;;4993108;28;20485;-75
2022/12/29 05:43:48;;;;;;;2.50;1.00;;;14.20;51.70;;;;;;4992154;28;20387;-76
2022/12/29 05:46:16;;;;;;;2.20;0.90;;;14.30;51.40;;;;;;4992631;28;20507;-76
2022/12/29 05:48:42;;;;;;;1.58;0.80;;;14.20;51.60;;;;;;4992792;28;20417;-76
2022/12/29 05:51:07;;;;;;;1.40;0.90;;;14.20;51.50;;;;;;4992554;28;20765;-76
2022/12/29 05:53:33;;;;;;;2.17;1.10;;;14.30;51.10;;;;;;4991868;28;20386;-75
2022/12/29 05:55:58;;;;;;;2.30;0.80;;;14.40;50.80;;;;;;4992481;28;20770;-76
2022/12/29 05:58:24;;;;;;;2.20;1.40;;;14.40;50.30;;;;;;4992308;28;20901;-76
2022/12/29 06:00:50;;;;;;;1.00;0.80;;;14.40;50.00;;;;;;4987492;28;20905;-76
2022/12/29 06:03:15;;;;;;;1.60;0.90;;;14.40;50.40;;;;;;4991522;28;20940;-76
2022/12/29 06:05:41;;;;;;;2.40;1.20;;;14.30;50.10;;;;;;5025314;22;20440;-73
2022/12/29 06:08:06;;;;;;;3.22;0.80;;;14.40;50.00;;;;;;5012010;28;20385;-73
2022/12/29 06:10:32;;;;;;;1.00;0.80;;;14.30;49.90;;;;;;5011511;28;20487;-73
2022/12/29 06:12:57;;;;;;;1.30;0.80;;;14.30;49.60;;;;;;5011046;28;20385;-73
2022/12/29 06:15:23;;;;;;;2.20;0.90;;;14.30;49.30;;;;;;5011547;28;20401;-73
2022/12/29 06:17:48;;;;;;;1.70;0.70;;;14.40;49.20;;;;;;5010970;28;20432;-73
2022/12/29 06:20:14;;;;;;;3.20;1.20;;;14.30;48.80;;;;;;5011886;28;20779;-72
2022/12/29 06:22:40;;;;;;;2.00;1.00;;;14.30;48.80;;;;;;5010773;28;20454;-72
2022/12/29 06:25:05;;;;;;;2.67;0.98;;;14.30;48.80;;;;;;5010321;28;20400;-73
2022/12/29 06:27:32;;;;;;;3.13;1.00;;;14.30;48.70;;;;;;5011459;28;20471;-72
2022/12/29 06:29:57;;;;;;;1.00;0.70;;;14.40;48.50;;;;;;5011094;28;20401;-73
2022/12/29 06:32:23;;;;;;;1.23;0.77;;;14.30;48.60;;;;;;5011531;28;20399;-73
2022/12/29 06:34:48;;;;;;;3.10;1.00;;;14.10;49.20;;;;;;5011154;28;20400;-73
2022/12/29 06:37:14;;;;;;;1.20;1.00;;;14.10;49.20;;;;;;5011556;28;20864;-73
2022/12/29 06:39:40;;;;;;;1.67;0.90;;;14.10;48.90;;;;;;5011378;28;20428;-73
2022/12/29 06:42:06;;;;;;;1.50;0.70;;;14.00;49.10;;;;;;5011003;28;20895;-72
2022/12/29 06:44:31;;;;;;;1.23;0.93;;;14.10;49.10;;;;;;5010115;28;20819;-73
2022/12/29 06:46:57;;;;;;;1.50;0.97;;;14.20;48.70;;;;;;5009108;28;20824;-72
2022/12/29 06:49:23;;;;;;;0.83;0.83;;;14.20;48.10;;;;;;5010110;28;20471;-73
2022/12/29 06:51:48;;;;;;;1.38;0.80;;;14.30;48.00;;;;;;5011561;28;20766;-72
2022/12/29 06:54:14;;;;;;;1.20;0.80;;;14.30;48.00;;;;;;5010270;28;20479;-73
2022/12/29 06:56:40;;;;;;;0.80;0.70;;;14.20;48.20;;;;;;5011040;28;20475;-73
2022/12/29 06:59:05;;;;;;;1.20;0.90;;;14.30;47.70;;;;;;5009178;28;20432;-73
2022/12/29 07:01:31;;;;;;;1.17;1.00;;;14.50;47.20;;;;;;5010989;28;20903;-73
2022/12/29 07:03:57;;;;;;;1.13;0.87;;;14.50;47.20;;;;;;5010598;28;20491;-73
2022/12/29 07:06:22;;;;;;;1.30;0.90;;;14.50;47.40;;;;;;5009626;28;20408;-72
2022/12/29 07:08:48;;;;;;;2.40;0.87;;;14.50;47.30;;;;;;5009821;28;20409;-72
2022/12/29 07:11:13;;;;;;;2.78;0.70;;;14.50;47.30;;;;;;5001169;28;20410;-73
2022/12/29 07:13:39;;;;;;;2.55;0.98;;;14.60;46.70;;;;;;5006171;28;20412;-72
2022/12/29 07:16:08;;;;;;;2.30;0.83;;;14.50;47.00;;;;;;5009523;28;20446;-72
2022/12/29 07:18:35;;;;;;;1.40;1.00;;;14.50;47.10;;;;;;5018134;28;20415;-72
2022/12/29 07:21:01;;;;;;;1.73;0.90;;;14.50;46.70;;;;;;5011210;28;20389;-73
2022/12/29 07:23:26;;;;;;;1.10;0.60;;;14.60;46.60;;;;;;5008696;28;20389;-72
2022/12/29 07:26:06;;;;;;;1.60;1.10;;;15.00;47.10;;;;;;5010690;28;20867;-72
2022/12/29 07:28:33;;;;;;;1.40;0.80;;;14.70;46.40;;;;;;5010484;28;20438;-73
2022/12/29 07:30:59;;;;;;;2.30;0.80;;;14.70;46.50;;;;;;5010746;28;20416;-72
2022/12/29 07:33:25;;;;;;;1.00;0.70;;;14.70;46.50;;;;;;5010030;28;20459;-72
2022/12/29 07:35:51;;;;;;;1.38;0.80;;;14.70;46.70;;;;;;5010608;28;20392;-72
2022/12/29 07:38:16;;;;;;;1.15;0.80;;;14.70;46.70;;;;;;5012651;28;20405;-72
2022/12/29 07:40:43;;;;;;;1.20;0.90;;;14.60;47.00;;;;;;5010787;28;20875;-71
2022/12/29 07:43:08;;;;;;;1.10;0.77;;;14.70;47.10;;;;;;5009556;28;20392;-72
2022/12/29 07:45:34;;;;;;;2.92;0.90;;;14.60;47.40;;;;;;5009257;28;20442;-72
2022/12/29 07:48:00;;;;;;;1.10;0.90;;;14.50;47.60;;;;;;5010686;28;20388;-72
2022/12/29 07:50:25;;;;;;;1.13;0.88;;;14.50;47.70;;;;;;5010045;28;20404;-71
2022/12/29 07:52:51;;;;;;;1.80;0.90;;;14.40;48.00;;;;;;5006200;28;20400;-72
2022/12/29 07:55:16;;;;;;;1.70;0.70;;;14.40;48.40;;;;;;5012303;28;20519;-72
2022/12/29 07:57:42;;;;;;;1.83;0.77;;;14.40;48.30;;;;;;5009375;28;20401;-72
2022/12/29 08:00:09;;;;;;;1.05;0.90;;;14.40;48.50;;;;;;5010182;28;20396;-72
2022/12/29 08:02:35;;;;;;;1.63;0.90;;;14.40;48.50;;;;;;5008104;28;20759;-72
2022/12/29 08:05:00;;;;;;;1.30;0.88;;;14.40;48.30;;;;;;5010231;28;20397;-72
2022/12/29 08:07:26;;;;;;;2.25;1.00;;;14.40;48.60;;;;;;5010445;28;20392;-72
2022/12/29 08:09:51;;;;;;;1.33;0.73;;;14.40;48.80;;;;;;5010367;28;21040;-72
2022/12/29 08:12:17;;;;;;;1.10;0.80;;;14.40;48.80;;;;;;5010196;28;20530;-72
2022/12/29 08:14:43;;;;;;;1.45;0.85;;;14.40;48.60;;;;;;5008093;28;20875;-72
2022/12/29 08:17:08;;;;;;;3.90;0.80;;;14.40;48.40;;;;;;5010315;28;20388;-72
2022/12/29 08:19:34;;;;;;;2.28;1.00;;;14.40;48.60;;;;;;5008551;28;20417;-72
2022/12/29 08:21:59;;;;;;;1.85;1.00;;;14.40;48.60;;;;;;5010195;28;20487;-72
2022/12/29 08:24:25;;;;;;;1.50;0.90;;;14.40;48.90;;;;;;5009658;28;20471;-72
2022/12/29 08:26:50;;;;;;;1.60;0.80;;;14.30;49.20;;;;;;5010713;28;20392;-72
2022/12/29 08:29:16;;;;;;;1.33;0.77;;;14.40;49.80;;;;;;5010346;28;20392;-72
2022/12/29 08:31:42;;;;;;;2.15;1.00;;;14.30;50.50;;;;;;5010441;28;20401;-72
2022/12/29 08:34:08;;;;;;;1.40;0.90;;;14.30;51.30;;;;;;5013330;28;20397;-71
2022/12/29 08:36:33;;;;;;;1.38;0.90;;;14.30;51.40;;;;;;5013603;28;20926;-72
2022/12/29 08:38:59;;;;;;;1.75;1.00;;;14.20;51.90;;;;;;5013603;28;20412;-71
2022/12/29 08:41:24;;;;;;;1.57;0.70;;;14.20;53.10;;;;;;5014055;28;20408;-72
2022/12/29 08:43:50;;;;;;;1.63;1.00;;;14.20;53.50;;;;;;5012801;28;20891;-72
2022/12/29 08:46:16;;;;;;;2.50;0.90;;;14.10;54.20;;;;;;5013201;28;20486;-72
2022/12/29 08:48:42;;;;;;;2.10;1.00;;;14.10;55.20;;;;;;5011998;28;20504;-72
2022/12/29 08:51:08;;;;;;;1.60;1.10;;;14.00;55.60;;;;;;5013634;28;20388;-72
2022/12/29 08:53:34;;;;;;;3.10;0.88;;;14.00;56.20;;;;;;5012912;28;20397;-72
2022/12/29 08:56:01;;;;;;;1.60;1.00;;;14.00;56.10;;;;;;5013472;28;20883;-72
2022/12/29 08:58:27;;;;;;;1.95;0.93;;;14.00;56.80;;;;;;5013410;28;20499;-72
2022/12/29 09:00:54;;;;;;;1.67;1.10;;;14.00;56.20;;;;;;5012931;28;20436;-73
2022/12/29 09:03:19;;;;;;;2.35;0.80;;;14.10;55.70;;;;;;5013162;28;20388;-72
2022/12/29 09:05:49;;;;;;;1.20;1.05;;;14.10;56.30;;;;;;5012551;28;20887;-72
2022/12/29 09:08:14;;;;;;;2.80;0.82;;;14.10;55.90;;;;;;5012841;28;20401;-72
2022/12/29 09:10:40;;;;;;;1.20;0.90;;;14.10;56.00;;;;;;5011792;28;20787;-72
2022/12/29 09:13:05;;;;;;;1.20;1.00;;;14.10;57.30;;;;;;5012373;28;20862;-72
2022/12/29 09:15:31;;;;;;;1.50;0.90;;;14.10;57.70;;;;;;5014449;28;20384;-73
2022/12/29 09:17:56;;;;;;;2.80;1.00;;;14.00;57.70;;;;;;5012923;28;20412;-72
2022/12/29 09:20:22;;;;;;;1.50;1.00;;;14.10;57.30;;;;;;5012485;28;20409;-72
2022/12/29 09:22:49;;;;;;;1.00;0.90;;;14.10;57.50;;;;;;5012115;28;20396;-72
2022/12/29 09:25:14;;;;;;;2.50;1.20;;;14.10;58.40;;;;;;5012306;28;20473;-73
2022/12/29 09:27:40;;;;;;;1.80;1.20;;;14.00;59.40;;;;;;5012841;28;20459;-72
2022/12/29 09:30:08;;;;;;;2.23;1.07;;;14.00;59.10;;;;;;5012714;28;21070;-72
2022/12/29 09:32:34;;;;;;;2.20;1.30;;;14.00;59.70;;;;;;5011930;28;20381;-72
2022/12/29 09:35:00;;;;;;;1.42;0.93;;;14.00;60.80;;;;;;5012468;28;20419;-72
2022/12/29 09:37:25;;;;;;;1.80;1.10;;;14.00;60.50;;;;;;5012358;28;20484;-73
2022/12/29 09:39:51;;;;;;;2.00;1.50;;;14.00;62.10;;;;;;5012457;28;20419;-72
2022/12/29 09:42:21;;;;;;;1.97;1.30;;;13.90;67.00;;;;;;5011994;28;20405;-74
2022/12/29 09:45:18;;;;;;;2.03;1.30;;;13.70;76.70;;;;;;5010646;28;20802;-73
2022/12/29 09:47:45;;;;;;;3.03;1.60;;;13.60;88.40;;;;;;5012487;28;20685;-73
2022/12/29 09:50:29;;;;;;;1.98;1.80;;;13.30;93.10;;;;;;5012271;28;20444;-73
2022/12/29 09:53:08;;;;;;;1.95;1.60;;;13.20;95.60;;;;;;5011349;28;20420;-73
2022/12/29 09:55:41;;;;;;;3.38;1.50;;;13.20;96.60;;;;;;5012141;28;20392;-73
2022/12/29 09:58:16;;;;;;;2.45;1.20;;;13.20;96.80;;;;;;5011972;28;20416;-74
2022/12/29 10:01:04;;;;;;;2.47;1.30;;;13.10;96.60;;;;;;5012147;28;20897;-73
2022/12/29 10:03:51;;;;;;;2.10;1.40;;;13.10;97.30;;;;;;5011362;28;20859;-73
2022/12/29 10:06:37;;;;;;;3.90;1.70;;;13.10;99.10;;;;;;5011642;28;20521;-73
2022/12/29 10:09:35;;;;;;;2.10;1.40;;;13.00;99.80;;;;;;5011756;28;20412;-73
2022/12/29 10:12:24;;;;;;;1.40;1.30;;;13.00;99.90;;;;;;5002934;28;20420;-73
2022/12/29 10:15:18;;;;;;;1.87;1.53;;;13.00;99.90;;;;;;5011503;28;20471;-73
2022/12/29 10:18:03;;;;;;;1.50;1.10;;;13.00;99.90;;;;;;5010461;28;20603;-73
2022/12/29 10:20:38;;;;;;;1.80;1.30;;;13.00;99.90;;;;;;5010415;28;20787;-73
2022/12/29 10:23:20;;;;;;;2.78;1.75;;;13.00;99.90;;;;;;5010890;28;20404;-73
2022/12/29 10:25:46;;;;;;;2.07;1.30;;;12.90;99.90;;;;;;5000554;28;20400;-73
2022/12/29 10:28:21;;;;;;;1.70;1.30;;;13.00;99.90;;;;;;5011680;28;20395;-73
2022/12/29 10:30:48;;;;;;;2.00;1.30;;;13.00;99.90;;;;;;5010270;28;20435;-74
2022/12/29 10:33:19;;;;;;;1.73;1.63;;;13.00;99.90;;;;;;5010799;28;20396;-73
2022/12/29 10:35:47;;;;;;;2.65;1.40;;;13.00;99.90;;;;;;5011580;28;20385;-74
2022/12/29 10:38:21;;;;;;;2.65;1.80;;;13.10;99.90;;;;;;5011231;28;20408;-74
2022/12/29 10:40:53;;;;;;;3.75;1.60;;;13.10;99.90;;;;;;5001301;28;20392;-74
2022/12/29 10:43:28;;;;;;;3.10;1.50;;;13.10;99.90;;;;;;5010717;28;20377;-73
2022/12/29 10:45:58;;;;;;;1.80;1.60;;;13.00;99.90;;;;;;5011387;28;20392;-74
2022/12/29 10:48:34;;;;;;;1.58;1.48;;;13.00;99.90;;;;;;5011628;28;20388;-72
2022/12/29 10:51:04;;;;;;;2.25;1.80;;;13.00;99.90;;;;;;5011415;28;20400;-73
2022/12/29 10:53:53;;;;;;;2.40;1.90;;;13.00;99.90;;;;;;5010225;28;20408;-73
2022/12/29 10:56:34;;;;;;;2.88;1.73;;;13.00;99.90;;;;;;5010698;28;20388;-73
2022/12/29 10:59:06;;;;;;;4.23;1.73;;;13.00;99.90;;;;;;5011182;28;20408;-73
2022/12/29 11:01:39;;;;;;;2.50;1.70;;;13.10;99.90;;;;;;5011095;28;20376;-73
2022/12/29 11:04:33;;;;;;;3.00;1.50;;;13.30;99.70;;;;;;5009869;28;20393;-73
2022/12/29 11:07:00;;;;;;;1.38;1.20;;;13.30;98.40;;;;;;5009735;28;20396;-72
2022/12/29 11:09:29;;;;;;;1.75;1.33;;;13.40;96.00;;;;;;5011087;28;20400;-73
2022/12/29 11:11:55;;;;;;;1.52;1.20;;;13.40;94.80;;;;;;5011150;28;20433;-73
2022/12/29 11:14:31;;;;;;;4.13;1.67;;;13.50;93.60;;;;;;5010391;28;20422;-73
2022/12/29 11:16:59;;;;;;;2.67;1.65;;;13.60;94.30;;;;;;5010854;28;20400;-73
2022/12/29 11:19:33;;;;;;;2.13;1.40;;;13.50;95.70;;;;;;5009565;28;20412;-72
2022/12/29 11:22:21;;;;;;;1.47;1.23;;;13.50;96.50;;;;;;5010976;28;20392;-72
2022/12/29 11:24:48;;;;;;;2.20;1.40;;;13.50;96.80;;;;;;5008927;28;20427;-72
2022/12/29 11:27:22;;;;;;;2.45;1.30;;;13.60;94.50;;;;;;5010912;28;20472;-72
2022/12/29 11:29:51;;;;;;;1.90;1.40;;;13.60;94.60;;;;;;5010081;28;20476;-72
2022/12/29 11:32:25;;;;;;;2.20;1.20;;;13.60;94.60;;;;;;5010984;28;20594;-72
2022/12/29 11:34:51;;;;;;;1.70;1.23;;;13.70;93.70;;;;;;5009269;28;20458;-72
2022/12/29 11:37:39;;;;;;;2.20;1.27;;;13.80;93.00;;;;;;5009611;28;20467;-72
2022/12/29 11:40:15;;;;;;;1.58;1.17;;;13.80;92.00;;;;;;5010245;28;20938;-72
2022/12/29 11:42:56;;;;;;;1.80;0.90;;;13.80;91.40;;;;;;5010191;28;20505;-72
2022/12/29 11:45:23;;;;;;;1.73;1.10;;;13.80;92.10;;;;;;5009826;28;20479;-71
2022/12/29 11:48:14;;;;;;;2.65;1.00;;;13.90;91.00;;;;;;5010948;28;20385;-72
2022/12/29 11:50:42;;;;;;;2.17;1.00;;;14.00;90.90;;;;;;5010465;28;20884;-73
2022/12/29 11:53:27;;;;;;;2.38;1.02;;;14.10;89.00;;;;;;5009907;28;20400;-72
2022/12/29 11:56:00;;;;;;;2.17;1.10;;;14.10;89.70;;;;;;5010432;28;20464;-73
2022/12/29 11:58:32;;;;;;;1.00;0.80;;;14.00;89.30;;;;;;5010125;28;20503;-72
2022/12/29 12:01:06;;;;;;;2.08;1.05;;;14.10;89.30;;;;;;5009112;28;20395;-72
2022/12/29 12:03:36;;;;;;;1.65;1.20;;;13.90;90.00;;;;;;5009607;28;20420;-72
2022/12/29 12:06:03;;;;;;;2.20;1.20;;;13.90;90.70;;;;;;5043209;22;20431;-75
2022/12/29 12:08:47;;;;;;;2.37;1.00;;;13.90;91.20;;;;;;5033121;28;20383;-75
2022/12/29 12:11:24;;;;;;;1.50;1.00;;;13.90;91.50;;;;;;5033528;28;20804;-76
2022/12/29 12:14:24;;;;;;;2.73;1.30;;;13.90;91.30;;;;;;5033190;28;20383;-75
2022/12/29 12:16:54;;;;;;;1.92;1.00;;;13.90;91.70;;;;;;5030229;28;20427;-75
2022/12/29 12:19:40;;;;;;;1.20;0.88;;;13.90;91.80;;;;;;5032636;28;20413;-75
2022/12/29 12:22:21;;;;;;;2.28;1.17;;;13.90;91.90;;;;;;5033565;28;20434;-75
2022/12/29 12:24:54;;;;;;;1.30;1.00;;;13.70;94.70;;;;;;5032525;28;20518;-76
2022/12/29 12:27:22;;;;;;;1.58;1.20;;;13.70;95.00;;;;;;5033877;28;20912;-75
2022/12/29 12:29:59;;;;;;;2.53;1.20;;;13.70;97.50;;;;;;5033075;28;20402;-73
2022/12/29 12:32:46;;;;;;;1.35;1.00;;;13.60;99.90;;;;;;5032911;28;20395;-73
2022/12/29 12:35:13;;;;;;;1.60;1.40;;;13.50;99.90;;;;;;5033466;28;20386;-73
2022/12/29 12:37:48;;;;;;;1.60;1.30;;;13.60;99.90;;;;;;5033376;28;20390;-74
2022/12/29 12:40:54;;;;;;;1.80;1.30;;;13.70;98.90;;;;;;5033569;28;20379;-75
2022/12/29 12:43:28;;;;;;;1.63;1.35;;;13.60;97.60;;;;;;4991143;28;20909;-75
2022/12/29 12:46:24;;;;;;;2.20;1.20;;;13.70;98.10;;;;;;5033282;28;20387;-74
2022/12/29 12:49:21;;;;;;;1.75;1.20;;;13.90;97.30;;;;;;5033193;28;20398;-75
2022/12/29 12:52:05;;;;;;;1.85;1.40;;;13.90;94.60;;;;;;5033285;28;20387;-74
2022/12/29 12:55:01;;;;;;;1.80;1.10;;;14.00;93.40;;;;;;5032734;28;20394;-74
2022/12/29 12:57:59;;;;;;;1.50;1.00;;;14.10;92.40;;;;;;5015561;28;20383;-75
2022/12/29 13:00:25;;;;;;;2.40;1.05;;;14.10;92.00;;;;;;5033103;28;20406;-74
2022/12/29 13:03:12;;;;;;;2.22;1.35;;;14.00;92.10;;;;;;5033072;28;20387;-74
2022/12/29 13:06:02;;;;;;;2.60;1.50;;;14.00;92.80;;;;;;5033017;28;20760;-74
2022/12/29 13:08:42;;;;;;;2.38;1.55;;;14.00;92.90;;;;;;5018649;28;20437;-74
2022/12/29 13:11:22;;;;;;;4.00;1.52;;;14.00;92.60;;;;;;5033285;28;20387;-75
2022/12/29 13:13:59;;;;;;;2.20;1.50;;;14.00;92.70;;;;;;5032011;28;20383;-74
2022/12/29 13:16:53;;;;;;;2.05;1.40;;;14.00;92.70;;;;;;5032835;28;20761;-75
2022/12/29 13:19:38;;;;;;;3.22;1.40;;;14.00;93.10;;;;;;5032796;28;20912;-75
2022/12/29 13:22:21;;;;;;;3.55;1.85;;;14.00;92.90;;;;;;5032277;28;20477;-75
2022/12/29 13:24:49;;;;;;;1.80;1.40;;;14.00;93.30;;;;;;5032032;28;20383;-75
2022/12/29 13:27:26;;;;;;;3.03;1.40;;;14.00;93.70;;;;;;5032377;28;20395;-76
2022/12/29 13:30:02;;;;;;;2.20;1.50;;;14.00;94.10;;;;;;5032581;28;20383;-75
2022/12/29 13:32:33;;;;;;;2.20;1.38;;;13.80;94.10;;;;;;5032030;28;20386;-75
2022/12/29 13:35:26;;;;;;;3.63;1.40;;;13.80;94.30;;;;;;5032528;28;20807;-75
2022/12/29 13:38:01;;;;;;;2.90;1.50;;;13.80;94.80;;;;;;5032377;28;20805;-75
2022/12/29 13:40:34;;;;;;;3.38;1.40;;;13.80;94.40;;;;;;5028575;28;20863;-74
2022/12/29 13:43:01;;;;;;;1.90;1.40;;;13.80;94.80;;;;;;5031045;28;20596;-74
2022/12/29 13:45:30;;;;;;;2.35;1.30;;;13.70;95.40;;;;;;5032133;28;20446;-75